createdAt,value
2022-08-03T00:01:50.243Z,18.20
2022-08-03T00:04:17.264Z,18.00
2022-08-03T00:06:44.188Z,18.40
2022-08-03T00:09:11.752Z,18.40
2022-08-03T00:11:39.613Z,18.90
2022-08-03T00:14:07.168Z,18.60
2022-08-03T00:16:34.429Z,18.50
2022-08-03T00:19:02.315Z,18.40
2022-08-03T00:21:29.409Z,18.30
2022-08-03T00:23:56.251Z,18.20
2022-08-03T00:26:23.177Z,18.40
2022-08-03T00:28:50.635Z,18.40
2022-08-03T00:31:26.474Z,18.10
2022-08-03T00:34:04.463Z,18.10
2022-08-03T00:36:31.208Z,17.90
2022-08-03T00:38:57.937Z,17.80
2022-08-03T00:41:24.764Z,17.80
2022-08-03T00:43:51.695Z,17.80
2022-08-03T00:46:21.730Z,17.90
2022-08-03T00:48:53.484Z,17.80
2022-08-03T00:51:21.251Z,17.70
2022-08-03T00:53:48.980Z,17.50
2022-08-03T00:56:17.143Z,17.50
2022-08-03T00:58:45.410Z,17.50
2022-08-03T01:01:12.852Z,17.50
2022-08-03T01:03:40.280Z,17.30
2022-08-03T01:06:17.432Z,17.60
2022-08-03T01:09:07.354Z,17.40
2022-08-03T01:12:00.608Z,17.30
2022-08-03T01:15:02.755Z,17.40
2022-08-03T01:17:40.050Z,17.30
2022-08-03T01:20:11.744Z,17.30
2022-08-03T01:23:15.168Z,17.10
2022-08-03T01:26:03.919Z,17.10
2022-08-03T01:29:02.652Z,17.30
2022-08-03T01:32:54.552Z,17.30
2022-08-03T01:34:34.076Z,17.30
2022-08-03T01:37:05.672Z,17.30
2022-08-03T01:39:33.269Z,17.50
2022-08-03T01:42:06.210Z,17.40
2022-08-03T01:44:37.112Z,17.40
2022-08-03T01:47:06.373Z,17.50
2022-08-03T01:49:38.492Z,17.20
2022-08-03T01:52:06.929Z,17.30
2022-08-03T01:54:41.862Z,17.30
2022-08-03T01:57:10.423Z,17.40
2022-08-03T01:59:38.895Z,17.50
2022-08-03T02:02:15.294Z,17.20
2022-08-03T02:04:57.685Z,17.20
2022-08-03T02:07:26.540Z,17.30
2022-08-03T02:09:55.650Z,17.30
2022-08-03T02:12:25.643Z,17.60
2022-08-03T02:14:54.005Z,17.30
2022-08-03T02:17:39.618Z,17.50
2022-08-03T02:20:11.253Z,17.50
2022-08-03T02:22:40.916Z,16.90
2022-08-03T02:25:09.876Z,16.90
2022-08-03T02:27:43.485Z,16.90
2022-08-03T02:30:12.298Z,17.00
2022-08-03T02:32:41.656Z,16.90
2022-08-03T02:35:13.118Z,16.90
2022-08-03T02:37:49.799Z,16.70
2022-08-03T02:40:19.098Z,16.80
2022-08-03T02:42:49.408Z,17.10
2022-08-03T02:45:19.905Z,17.00
2022-08-03T02:47:54.495Z,17.10
2022-08-03T02:50:24.207Z,17.10
2022-08-03T02:52:52.898Z,17.10
2022-08-03T02:55:22.739Z,17.80
2022-08-03T02:57:51.590Z,17.10
2022-08-03T03:00:27.232Z,17.10
2022-08-03T03:02:57.845Z,17.00
2022-08-03T03:05:56.194Z,17.50
2022-08-03T03:08:18.856Z,17.30
2022-08-03T03:10:48.516Z,16.80
2022-08-03T03:13:22.241Z,16.60
2022-08-03T03:15:49.768Z,17.20
2022-08-03T03:18:21.883Z,17.10
2022-08-03T03:20:51.555Z,17.40
2022-08-03T03:23:19.593Z,16.80
2022-08-03T03:25:47.011Z,16.70
2022-08-03T03:28:14.450Z,16.50
2022-08-03T03:30:43.487Z,17.20
2022-08-03T03:33:10.457Z,17.00
2022-08-03T03:35:39.040Z,17.30
2022-08-03T03:38:07.110Z,17.40
2022-08-03T03:40:36.051Z,17.40
2022-08-03T03:43:03.389Z,17.00
2022-08-03T03:45:31.569Z,16.70
2022-08-03T03:48:00.652Z,17.40
2022-08-03T03:50:28.937Z,16.50
2022-08-03T03:52:55.649Z,17.00
2022-08-03T03:55:23.003Z,17.20
2022-08-03T03:57:49.857Z,17.10
2022-08-03T04:00:19.018Z,17.30
2022-08-03T04:02:46.457Z,16.60
2022-08-03T04:05:33.026Z,16.90
2022-08-03T04:08:18.312Z,16.70
2022-08-03T04:11:00.084Z,16.90
2022-08-03T04:13:45.990Z,16.90
2022-08-03T04:16:15.330Z,16.90
2022-08-03T04:18:44.681Z,17.20
2022-08-03T04:21:13.482Z,17.00
2022-08-03T04:23:47.624Z,17.00
2022-08-03T04:26:18.420Z,17.20
2022-08-03T04:28:46.734Z,17.20
2022-08-03T04:31:16.171Z,17.20
2022-08-03T04:33:45.147Z,17.00
2022-08-03T04:36:19.788Z,16.90
2022-08-03T04:39:01.845Z,16.80
2022-08-03T04:41:30.890Z,16.60
2022-08-03T04:44:00.200Z,17.30
2022-08-03T04:46:32.987Z,16.50
2022-08-03T04:49:01.209Z,16.50
2022-08-03T04:51:38.656Z,16.70
2022-08-03T04:54:07.182Z,16.60
2022-08-03T04:56:34.814Z,16.70
2022-08-03T04:59:01.794Z,17.20
2022-08-03T05:01:28.956Z,17.10
2022-08-03T05:03:55.764Z,17.20
2022-08-03T05:06:25.110Z,17.00
2022-08-03T05:08:52.104Z,17.10
2022-08-03T05:11:19.101Z,17.20
2022-08-03T05:13:46.372Z,17.30
2022-08-03T05:16:14.056Z,16.90
2022-08-03T05:18:42.493Z,17.00
2022-08-03T05:21:10.009Z,17.60
2022-08-03T05:23:37.866Z,17.00
2022-08-03T05:26:04.958Z,16.90
2022-08-03T05:28:31.707Z,17.20
2022-08-03T05:30:58.428Z,17.90
2022-08-03T05:33:25.166Z,17.70
2022-08-03T05:36:01.895Z,17.20
2022-08-03T05:38:35.093Z,17.30
2022-08-03T05:41:20.962Z,17.10
2022-08-03T05:43:54.927Z,17.90
2022-08-03T05:46:23.000Z,17.30
2022-08-03T05:48:49.985Z,17.60
2022-08-03T05:51:17.619Z,18.20
2022-08-03T05:53:45.128Z,18.10
2022-08-03T05:56:13.731Z,18.00
2022-08-03T05:58:47.624Z,18.20
2022-08-03T06:01:16.034Z,18.30
2022-08-03T06:03:43.112Z,18.50
2022-08-03T06:06:09.966Z,18.60
2022-08-03T06:08:36.728Z,18.80
2022-08-03T06:11:04.100Z,19.20
2022-08-03T06:13:30.853Z,19.10
2022-08-03T06:15:57.588Z,19.30
2022-08-03T06:18:24.699Z,19.40
2022-08-03T06:20:52.490Z,19.60
2022-08-03T06:23:19.498Z,19.60
2022-08-03T06:25:46.960Z,19.70
2022-08-03T06:28:42.359Z,19.80
2022-08-03T06:31:01.970Z,19.90
2022-08-03T06:33:48.491Z,20.00
2022-08-03T06:36:15.977Z,20.20
2022-08-03T06:38:42.716Z,20.30
2022-08-03T06:41:09.496Z,20.10
2022-08-03T06:43:38.000Z,20.20
2022-08-03T06:46:24.611Z,20.30
2022-08-03T06:48:53.103Z,20.50
2022-08-03T06:51:20.017Z,20.50
2022-08-03T06:53:46.762Z,20.70
2022-08-03T06:56:13.557Z,20.80
2022-08-03T06:58:40.597Z,20.90
2022-08-03T07:01:07.386Z,21.00
2022-08-03T07:03:34.173Z,21.10
2022-08-03T07:06:01.191Z,21.20
2022-08-03T07:08:33.421Z,21.20
2022-08-03T07:11:01.549Z,21.30
2022-08-03T07:13:28.376Z,21.40
2022-08-03T07:15:56.417Z,21.50
2022-08-03T07:18:29.300Z,21.50
2022-08-03T07:20:57.477Z,21.60
2022-08-03T07:23:25.632Z,21.70
2022-08-03T07:25:52.951Z,22.10
2022-08-03T07:28:20.655Z,21.90
2022-08-03T07:30:47.595Z,22.00
2022-08-03T07:33:15.255Z,22.10
2022-08-03T07:35:42.454Z,22.30
2022-08-03T07:38:09.193Z,22.50
2022-08-03T07:40:35.918Z,22.40
2022-08-03T07:43:03.752Z,22.60
2022-08-03T07:45:31.671Z,22.70
2022-08-03T07:47:58.492Z,22.80
2022-08-03T07:50:25.581Z,22.90
2022-08-03T07:52:54.165Z,23.00
2022-08-03T07:55:22.766Z,23.10
2022-08-03T07:58:12.551Z,23.20
2022-08-03T08:00:39.602Z,23.20
2022-08-03T08:03:06.693Z,23.30
2022-08-03T08:05:34.008Z,23.40
2022-08-03T08:08:01.990Z,23.50
2022-08-03T08:10:28.849Z,23.50
2022-08-03T08:12:56.458Z,23.70
2022-08-03T08:15:23.542Z,23.80
2022-08-03T08:17:53.518Z,23.80
2022-08-03T08:20:31.620Z,24.00
2022-08-03T08:23:22.301Z,24.00
2022-08-03T08:25:54.166Z,24.20
2022-08-03T08:28:32.620Z,24.00
2022-08-03T08:31:00.622Z,24.00
2022-08-03T08:33:37.353Z,24.00
2022-08-03T08:36:15.479Z,24.20
2022-08-03T08:38:44.741Z,24.20
2022-08-03T08:41:13.196Z,24.30
2022-08-03T08:43:40.267Z,24.30
2022-08-03T08:46:08.656Z,24.60
2022-08-03T08:48:40.373Z,25.00
2022-08-03T08:51:08.742Z,24.60
2022-08-03T08:53:37.537Z,24.80
2022-08-03T08:56:05.703Z,24.80
2022-08-03T08:58:38.872Z,24.70
2022-08-03T09:01:05.972Z,24.80
2022-08-03T09:03:36.139Z,24.80
2022-08-03T09:06:05.168Z,24.90
2022-08-03T09:08:32.930Z,24.90
2022-08-03T09:11:00.219Z,25.00
2022-08-03T09:13:26.978Z,25.20
2022-08-03T09:16:14.295Z,25.00
2022-08-03T09:18:49.615Z,25.10
2022-08-03T09:21:32.584Z,25.20
2022-08-03T09:24:03.860Z,25.30
2022-08-03T09:26:33.441Z,25.40
2022-08-03T09:29:13.971Z,25.40
2022-08-03T09:31:44.319Z,25.50
2022-08-03T09:34:14.507Z,25.50
2022-08-03T09:36:49.713Z,25.70
2022-08-03T09:39:40.626Z,25.60
2022-08-03T09:42:14.835Z,25.60
2022-08-03T09:44:50.692Z,25.80
2022-08-03T09:47:32.228Z,25.80
2022-08-03T09:50:03.627Z,25.90
2022-08-03T09:52:49.833Z,25.90
2022-08-03T09:56:32.906Z,25.80
2022-08-03T09:58:10.343Z,26.30
2022-08-03T10:01:04.170Z,26.10
2022-08-03T10:03:35.107Z,26.10
2022-08-03T10:06:19.582Z,26.20
2022-08-03T10:08:47.296Z,26.20
2022-08-03T10:11:30.315Z,26.20
2022-08-03T10:14:01.245Z,26.20
2022-08-03T10:16:33.288Z,26.40
2022-08-03T10:19:00.105Z,26.40
2022-08-03T10:21:32.148Z,26.40
2022-08-03T10:23:59.760Z,26.40
2022-08-03T10:26:29.209Z,26.60
2022-08-03T10:28:58.560Z,26.50
2022-08-03T10:31:26.323Z,26.50
2022-08-03T10:33:57.168Z,26.50
2022-08-03T10:36:27.397Z,26.60
2022-08-03T10:38:56.626Z,26.60
2022-08-03T10:41:34.568Z,26.60
2022-08-03T10:44:13.412Z,26.70
2022-08-03T10:46:44.785Z,26.70
2022-08-03T10:49:20.739Z,26.70
2022-08-03T10:52:02.766Z,26.80
2022-08-03T10:55:00.942Z,26.90
2022-08-03T10:57:46.473Z,26.90
2022-08-03T11:00:20.603Z,27.00
2022-08-03T11:03:06.391Z,27.00
2022-08-03T11:05:36.022Z,27.10
2022-08-03T11:08:34.913Z,27.10
2022-08-03T11:11:18.655Z,27.10
2022-08-03T11:14:02.853Z,27.10
2022-08-03T11:16:35.602Z,27.10
2022-08-03T11:19:05.644Z,27.10
2022-08-03T11:21:50.713Z,27.10
2022-08-03T11:24:51.579Z,27.20
2022-08-03T11:27:23.192Z,27.20
2022-08-03T11:29:59.515Z,27.30
2022-08-03T11:32:38.551Z,27.30
2022-08-03T11:35:23.627Z,27.40
2022-08-03T11:38:03.174Z,27.80
2022-08-03T11:40:42.626Z,27.40
2022-08-03T11:43:32.017Z,27.40
2022-08-03T11:46:01.581Z,27.60
2022-08-03T11:48:34.948Z,27.50
2022-08-03T11:51:03.111Z,27.50
2022-08-03T11:53:30.436Z,27.60
2022-08-03T11:56:00.332Z,27.50
2022-08-03T11:59:14.246Z,27.60
2022-08-03T12:01:21.254Z,27.70
2022-08-03T12:03:50.536Z,27.80
2022-08-03T12:06:18.664Z,27.80
2022-08-03T12:08:46.430Z,27.90
2022-08-03T12:11:15.134Z,27.80
2022-08-03T12:14:44.751Z,27.90
2022-08-03T12:16:38.274Z,28.00
2022-08-03T12:19:09.226Z,28.00
2022-08-03T12:21:56.961Z,28.10
2022-08-03T12:24:24.383Z,28.10
2022-08-03T12:26:58.362Z,28.20
2022-08-03T12:29:26.871Z,28.10
2022-08-03T12:31:53.702Z,28.30
2022-08-03T12:34:20.449Z,28.30
2022-08-03T12:36:57.733Z,28.50
2022-08-03T12:39:27.670Z,28.50
2022-08-03T12:41:56.010Z,28.80
2022-08-03T12:44:34.545Z,28.60
2022-08-03T12:47:03.037Z,28.50
2022-08-03T12:49:45.561Z,28.50
2022-08-03T12:52:12.567Z,28.40
2022-08-03T12:54:39.399Z,28.50
2022-08-03T12:57:07.182Z,28.70
2022-08-03T12:59:40.688Z,28.80
2022-08-03T13:02:19.181Z,29.10
2022-08-03T13:04:47.495Z,29.40
2022-08-03T13:07:16.044Z,29.50
2022-08-03T13:09:53.247Z,29.30
2022-08-03T13:12:25.219Z,29.60
2022-08-03T13:14:57.046Z,29.90
2022-08-03T13:17:24.784Z,30.20
2022-08-03T13:19:52.014Z,30.40
2022-08-03T13:22:24.404Z,31.00
2022-08-03T13:24:55.928Z,31.60
2022-08-03T13:28:04.230Z,32.10
2022-08-03T13:30:10.268Z,31.70
2022-08-03T13:32:37.099Z,31.80
2022-08-03T13:35:05.443Z,32.10
2022-08-03T13:37:32.643Z,32.50
2022-08-03T13:40:02.556Z,32.90
2022-08-03T13:42:34.053Z,32.90
2022-08-03T13:45:02.072Z,33.20
2022-08-03T13:47:29.308Z,33.70
2022-08-03T13:50:01.066Z,34.00
2022-08-03T13:52:38.315Z,34.20
2022-08-03T13:55:07.010Z,34.60
2022-08-03T13:58:02.211Z,35.00
2022-08-03T14:00:29.007Z,34.80
2022-08-03T14:03:03.972Z,34.10
2022-08-03T14:05:32.518Z,34.30
2022-08-03T14:08:04.809Z,35.40
2022-08-03T14:10:36.376Z,36.30
2022-08-03T14:13:04.518Z,38.70
2022-08-03T14:15:31.826Z,40.10
2022-08-03T14:18:03.986Z,39.20
2022-08-03T14:20:37.689Z,40.50
2022-08-03T14:23:06.867Z,40.90
2022-08-03T14:25:43.510Z,41.10
2022-08-03T14:28:18.686Z,41.60
2022-08-03T14:30:45.660Z,41.70
2022-08-03T14:33:12.374Z,41.60
2022-08-03T14:35:39.130Z,41.60
2022-08-03T14:38:05.935Z,41.00
2022-08-03T14:40:33.101Z,41.00
2022-08-03T14:42:59.789Z,40.70
2022-08-03T14:45:26.488Z,40.30
2022-08-03T14:50:29.094Z,40.30
2022-08-03T14:50:44.359Z,40.70
2022-08-03T14:53:14.047Z,40.50
2022-08-03T14:55:49.712Z,40.70
2022-08-03T14:58:22.675Z,41.30
2022-08-03T15:00:50.890Z,41.80
2022-08-03T15:03:21.424Z,42.20
2022-08-03T15:05:48.295Z,41.20
2022-08-03T15:08:15.093Z,41.60
2022-08-03T15:10:44.064Z,40.80
2022-08-03T15:13:13.085Z,40.80
2022-08-03T15:15:40.472Z,39.90
2022-08-03T15:18:07.608Z,39.40
2022-08-03T15:20:49.624Z,39.60
2022-08-03T15:23:17.689Z,40.00
2022-08-03T15:26:04.143Z,40.00
2022-08-03T15:28:32.480Z,39.50
2022-08-03T15:31:00.394Z,39.20
2022-08-03T15:33:27.250Z,38.90
2022-08-03T15:35:54.053Z,38.90
2022-08-03T15:38:26.123Z,38.80
2022-08-03T15:40:54.585Z,38.40
2022-08-03T15:43:22.790Z,38.10
2022-08-03T15:45:54.677Z,38.40
2022-08-03T15:48:36.388Z,38.20
2022-08-03T15:51:04.595Z,38.00
2022-08-03T15:53:31.468Z,36.90
2022-08-03T15:55:58.223Z,36.30
2022-08-03T15:59:04.578Z,36.10
2022-08-03T16:01:19.776Z,36.20
2022-08-03T16:03:47.171Z,35.90
2022-08-03T16:06:14.051Z,36.30
2022-08-03T16:08:41.141Z,36.40
2022-08-03T16:11:08.043Z,36.40
2022-08-03T16:14:13.692Z,36.40
2022-08-03T16:16:21.557Z,36.30
2022-08-03T16:18:48.407Z,36.10
2022-08-03T16:21:19.441Z,35.80
2022-08-03T16:23:48.923Z,35.70
2022-08-03T16:26:15.711Z,35.40
2022-08-03T16:28:42.502Z,35.10
2022-08-03T16:31:09.470Z,35.00
2022-08-03T16:33:36.603Z,34.50
2022-08-03T16:36:03.976Z,34.10
2022-08-03T16:38:31.350Z,34.00
2022-08-03T16:40:58.393Z,33.70
2022-08-03T16:43:25.420Z,33.60
2022-08-03T16:45:52.519Z,33.60
2022-08-03T16:48:19.514Z,33.30
2022-08-03T16:50:46.321Z,33.20
2022-08-03T16:53:16.486Z,33.20
2022-08-03T16:55:53.411Z,33.10
2022-08-03T16:58:34.471Z,32.90
2022-08-03T17:01:24.449Z,32.40
2022-08-03T17:04:02.963Z,32.00
2022-08-03T17:06:35.892Z,31.60
2022-08-03T17:09:08.380Z,31.50
2022-08-03T17:11:37.630Z,31.10
2022-08-03T17:14:09.235Z,31.00
2022-08-03T17:16:38.390Z,30.80
2022-08-03T17:19:06.924Z,30.60
2022-08-03T17:21:39.033Z,30.50
2022-08-03T17:24:19.713Z,30.40
2022-08-03T17:26:49.803Z,30.10
2022-08-03T17:29:22.887Z,30.00
2022-08-03T17:31:54.217Z,29.90
2022-08-03T17:34:26.315Z,29.80
2022-08-03T17:37:26.923Z,29.70
2022-08-03T17:39:58.350Z,29.80
2022-08-03T17:42:30.733Z,30.00
2022-08-03T17:45:01.622Z,29.90
2022-08-03T17:47:41.258Z,29.90
2022-08-03T17:50:24.256Z,29.60
2022-08-03T17:53:07.581Z,29.40
2022-08-03T17:55:55.940Z,29.30
2022-08-03T17:58:44.502Z,29.10
2022-08-03T18:02:02.177Z,28.90
2022-08-03T18:07:40.966Z,27.90
2022-08-03T18:10:12.097Z,27.80
2022-08-03T18:12:52.082Z,27.70
2022-08-03T18:15:32.735Z,27.50
2022-08-03T18:18:10.266Z,27.40
2022-08-03T18:20:41.707Z,27.30
2022-08-03T18:23:25.521Z,27.20
2022-08-03T18:26:00.233Z,27.00
2022-08-03T18:28:30.216Z,26.90
2022-08-03T18:30:57.766Z,26.70
2022-08-03T18:34:17.563Z,26.50
2022-08-03T18:36:21.709Z,26.50
2022-08-03T18:38:53.849Z,26.20
2022-08-03T18:41:32.267Z,26.00
2022-08-03T18:44:07.941Z,25.80
2022-08-03T18:46:54.323Z,25.80
2022-08-03T18:49:31.577Z,25.60
2022-08-03T18:52:04.838Z,25.40
2022-08-03T18:55:02.631Z,25.20
2022-08-03T18:57:55.567Z,24.90
2022-08-03T19:00:33.489Z,24.70
2022-08-03T19:03:20.307Z,24.50
2022-08-03T19:06:17.523Z,24.30
2022-08-03T19:08:54.373Z,24.30
2022-08-03T19:12:13.336Z,24.20
2022-08-03T19:14:28.447Z,24.20
2022-08-03T19:17:07.133Z,24.10
2022-08-03T19:19:43.526Z,23.90
2022-08-03T19:22:16.282Z,23.90
2022-08-03T19:24:45.941Z,23.80
2022-08-03T19:27:15.915Z,23.80
2022-08-03T19:32:33.607Z,23.70
2022-08-03T19:35:01.977Z,23.70
2022-08-03T19:37:38.283Z,23.50
2022-08-03T19:40:10.925Z,23.40
2022-08-03T19:42:42.985Z,23.20
2022-08-03T19:45:15.490Z,23.00
2022-08-03T19:47:52.597Z,22.90
2022-08-03T19:50:20.390Z,22.80
2022-08-03T19:52:48.551Z,22.80
2022-08-03T19:55:17.241Z,22.50
2022-08-03T19:57:49.485Z,22.50
2022-08-03T20:00:20.113Z,22.60
2022-08-03T20:02:53.909Z,22.80
2022-08-03T20:05:20.841Z,22.90
2022-08-03T20:07:50.480Z,22.90
2022-08-03T20:10:19.049Z,22.80
2022-08-03T20:12:46.999Z,22.70
2022-08-03T20:15:14.529Z,22.70
2022-08-03T20:17:56.592Z,22.90
2022-08-03T20:20:34.184Z,22.60
2022-08-03T20:23:07.237Z,22.60
2022-08-03T20:25:48.447Z,22.50
2022-08-03T20:28:49.677Z,22.30
2022-08-03T20:31:18.147Z,22.00
2022-08-03T20:33:46.771Z,21.80
2022-08-03T20:36:17.904Z,21.60
2022-08-03T20:38:46.946Z,21.60
2022-08-03T20:41:16.055Z,21.60
2022-08-03T20:43:43.116Z,21.50
2022-08-03T20:46:35.286Z,21.30
2022-08-03T20:48:59.009Z,21.30
2022-08-03T20:51:50.524Z,21.40
2022-08-03T20:54:20.882Z,21.40
2022-08-03T20:56:56.530Z,21.50
2022-08-03T20:59:24.534Z,21.60
2022-08-03T21:01:52.287Z,21.70
2022-08-03T21:04:21.828Z,21.80
2022-08-03T21:06:56.126Z,21.80
2022-08-03T21:09:40.048Z,21.70
2022-08-03T21:12:15.306Z,21.60
2022-08-03T21:13:04.062Z,28.40
2022-08-03T21:13:09.393Z,23.70
2022-08-03T21:15:03.324Z,21.60
2022-08-03T21:17:41.471Z,21.60
2022-08-03T21:20:10.849Z,21.50
2022-08-03T21:22:39.440Z,21.40
2022-08-03T21:25:11.004Z,21.20
2022-08-03T21:27:38.016Z,21.10
2022-08-03T21:30:08.283Z,21.00
2022-08-03T21:32:36.333Z,20.90
2022-08-03T21:35:03.325Z,20.90
2022-08-03T21:37:30.149Z,21.00
2022-08-03T21:39:57.102Z,20.80
2022-08-03T21:42:24.203Z,20.80
2022-08-03T21:44:54.454Z,20.80
2022-08-03T21:47:23.065Z,20.60
2022-08-03T21:50:08.675Z,20.50
2022-08-03T21:52:49.594Z,20.40
2022-08-03T21:55:20.497Z,20.30
2022-08-03T21:57:52.115Z,20.30
2022-08-03T22:00:21.221Z,20.30
2022-08-03T22:03:15.159Z,20.20
2022-08-03T22:05:44.556Z,20.30
2022-08-03T22:08:13.640Z,20.30
2022-08-03T22:10:43.165Z,20.30
2022-08-03T22:13:10.275Z,20.30
2022-08-03T22:15:37.205Z,20.30
2022-08-03T22:18:04.950Z,20.10
2022-08-03T22:20:32.169Z,20.00
2022-08-03T22:23:05.855Z,20.30
2022-08-03T22:25:38.077Z,20.10
2022-08-03T22:28:10.390Z,20.00
2022-08-03T22:30:39.094Z,20.00
2022-08-03T22:33:11.402Z,19.90
2022-08-03T22:35:56.304Z,19.90
2022-08-03T22:38:26.495Z,19.80
2022-08-03T22:40:53.960Z,19.90
2022-08-03T22:43:27.493Z,19.80
2022-08-03T22:46:09.192Z,19.80
2022-08-03T22:48:41.526Z,19.90
2022-08-03T22:51:09.311Z,19.80
2022-08-03T22:53:36.351Z,19.80
2022-08-03T22:56:03.739Z,19.80
2022-08-03T22:58:30.509Z,19.60
2022-08-03T23:01:08.877Z,19.50
2022-08-03T23:04:00.105Z,19.40
2022-08-03T23:06:31.263Z,19.40
2022-08-03T23:08:58.057Z,19.40
2022-08-03T23:11:26.123Z,19.20
2022-08-03T23:13:55.359Z,19.20
2022-08-03T23:16:29.237Z,19.20
2022-08-03T23:18:57.521Z,19.10
2022-08-03T23:21:59.857Z,19.10
2022-08-03T23:24:26.109Z,19.10
2022-08-03T23:26:57.732Z,19.20
2022-08-03T23:29:26.192Z,19.10
2022-08-03T23:31:54.436Z,19.00
2022-08-03T23:34:41.456Z,19.10
2022-08-03T23:37:09.631Z,19.00
2022-08-03T23:39:38.086Z,18.90
2022-08-03T23:42:05.885Z,19.00
2022-08-03T23:44:37.116Z,18.90
2022-08-03T23:47:04.162Z,19.00
2022-08-03T23:49:31.283Z,18.70
2022-08-03T23:52:09.464Z,18.90
2022-08-03T23:54:40.466Z,18.80
2022-08-03T23:57:27.937Z,18.90
